Rejestracja

Wszystkie dane podawane są w czasie UTC za wyjątkiem miejsc gdzie jest jednoznacznie podane, że jest inaczej. Dane podawane w serwisie mają charakter informacyjny!!!
Informacje w sprawie dostępu do serwisu pod numerem tel. +48 261-828-138
Informacja dla żołnierzy i pracowników wojska: Prosimy o niezwłoczną zmianę adresu e-mail w profilu użytkownika na pocztę w domenie @ron.mil.pl

Aktualna Pogoda
 
Pogoda w Polsce
6°C Szczecin 1°C Suwałki 1°C Warszawa 4°C Poznan
1°C Opole -6°C Kraków -2°C Rzeszów
Więcej miast w Polsce

Pogoda w Europie
7°C Berlin 9°C Paryz 9°C Bruksela 2°C Oslo
6°C Praga -0°C Zagrzeb
Więcej miast w Europie

Metary wojskowe test
METAR EPBC 070600Z 21002KT 9999 BKN020 02/M03 Q1005=
METAR EPCE 070600Z 22010KT 3000 -DZ BR OVC004 05/04 Q0997 RMK 045 097 8/8=
METAR EPDA 070600Z 22011G21KT 9999 OVC009 06/05 Q0997 RMK 057 093 8/8=
METAR EPDE 070600Z 21008KT 9999 BKN200 M02/M06 Q1008 RMK M022 074 5/5=
METAR EPIR 070600Z 20018KT 7000 RA SCT007 OVC013 04/02 Q1001 RMK 035 089 8/3=
METAR EPKS 070600Z 23012KT 7000 -RA OVC006 04/04 Q1003 RMK 038 100 8/8=
METAR EPLK 070600Z 19009KT 150V220 9999 SCT012 OVC020 01/M03 Q1006 RMK 013 075 8/3=
METAR EPLY 070600Z 22010KT 9999 OVC028 04/M01 Q1004 RMK 037 071 8/8=
METAR EPMB 070600Z 23013KT 6000 RA OVC007 03/02 Q0999 RMK 034 092 8/8=
METAR EPMI 070600Z 23012KT 5000 -RA BR BKN004 OVC010 05/05 Q0999 RMK 051 097 8/6=
METAR EPMM 070600Z 23009KT 190V270 9999 OVC023 01/M04 Q1005 RMK 009 070 8/8=
METAR EPOK 070600Z 23008KT 9999 BKN010 06/04 Q0997 RMK 057 087 7/7=
METAR EPPR 070600Z 19004KT 8000 BKN009 OVC011 05/03 Q0998 RMK 047 087 8/6=
METAR EPPW 070600Z 23012KT 4000 -RA BR SCT008 OVC011 03/03 Q1003 RMK 033 097 8/4=
METAR EPSN 070600Z 23011KT 3500 -RA BKN004 OVC012 05/05 Q0998 RMK 052 100 8/6=
METAR EPTM 070600Z 21006KT 9999 BKN027 00/M03 Q1007 RMK 004 075 7/7=


 

Prawa autorskie©2007 SSH SZ RP. Wszelkie prawa zastrzeżone.